Flight Track Log - Related Links

Times and Time Zones

All times are in EDT time to prevent confusion due to time zone crossing. See the UAL1248 flight status page for this flight to view local times or setup timezone preferences in your user account.

Time Position Orientation Groundspeed Altitude Reporting Facility
EDT Latitude Longitude Course Direction KTS MPH feet Rate Location/Type
Thu 07:44:01 AM 40.7000 -74.2333 303° West 175 201 1,900  Level New York TRACON
Thu 07:45:01 AM 40.7000 -74.3000 270° West 234 269 3,800 2,466 Climbing New York TRACON
Thu 07:46:00 AM 40.7798 -74.5722 284° West  Level FlightAware Approximate
Thu 07:46:44 AM 40.7039 -74.4611 272° West 240 276 8,600  Level New York Center
Thu 07:47:00 AM 40.8067 -74.7123 287° West  Level FlightAware Approximate
Thu 07:47:44 AM 40.7239 -74.5525 286° West 254 292 11,300  Level New York Center
Thu 07:48:00 AM 40.8387 -74.8507 287° West  Level FlightAware Approximate
Thu 07:48:45 AM 40.7522 -74.6472 292° West 271 312 13,800  Level New York Center
Thu 07:49:00 AM 40.8750 -74.9833 303° West  Level FlightAware Approximate
Thu 07:49:46 AM 40.7786 -74.7308 293° West 276 318 15,500  Level New York Center
Thu 07:50:44 AM 40.8014 -74.8583 283° West 314 361 16,800 2,067 Climbing New York Center
Thu 07:51:45 AM 40.7883 -74.9864 262° West 344 396 19,600 2,380 Climbing New York Center
Thu 07:52:45 AM 40.7753 -75.1197 263° West 355 409 21,600 1,950 Climbing New York Center
Thu 07:53:45 AM 40.7647 -75.2342 263° West 355 409 23,500 1,350 Climbing New York Center
Thu 07:54:45 AM 40.7511 -75.3731 263° West 372 428 24,300 893 Climbing New York Center
Thu 07:55:46 AM 40.7383 -75.5339 264° West 394 453 25,300 1,041 Climbing New York Center
Thu 07:56:46 AM 40.7239 -75.6889 263° West 413 475 26,400 1,261 Climbing New York Center
Thu 07:57:45 AM 40.7067 -75.8464 262° West 431 496 27,800 1,300 Climbing New York Center
Thu 07:58:46 AM 40.6919 -75.9958 263° West 451 519 29,000 1,100 Climbing New York Center
Thu 07:59:45 AM 40.6744 -76.1533 262° West 451 519 30,000 504 Climbing New York Center
Thu 08:00:45 AM 40.6767 -76.3286 271° West 445 512 30,000 706 Level New York Center
Thu 08:01:44 AM 40.7006 -76.4839 282° West 432 497 31,400 1,200 Climbing New York Center
Thu 08:02:45 AM 40.7222 -76.6392 280° West 432 497 32,400 893 Climbing New York Center
Thu 08:03:45 AM 40.7167 -76.7892 267° West 432 497 33,200 744 Climbing New York Center
Thu 08:04:46 AM 40.6778 -76.9364 251° West 425 489 33,900 403 Climbing New York Center
Thu 08:05:44 AM 40.5886 -77.0458 223° Southwest 410 472 34,000 50 Climbing New York Center
Thu 08:06:46 AM 40.5703 -77.1944 261° West 407 468 34,000  Level New York Center
Thu 08:07:44 AM 40.6003 -77.3342 286° West 412 474 34,000  Level New York Center
Thu 08:08:45 AM 40.6269 -77.4872 283° West 423 487 34,000  Level New York Center
Thu 08:11:03 AM 40.6928 -77.8508 284° West 433 498 34,000  Level Cleveland Center
Thu 08:12:04 AM 40.7186 -78.0044 283° West 431 496 34,000  Level Cleveland Center
Thu 08:13:06 AM 40.7447 -78.1575 283° West 431 496 34,000  Level Cleveland Center
Thu 08:14:08 AM 40.7725 -78.3114 283° West 431 496 34,000  Level Cleveland Center
Thu 08:15:10 AM 40.7983 -78.4653 283° West 431 496 34,000  Level Cleveland Center
Thu 08:16:12 AM 40.8242 -78.6206 282° West 430 495 34,000  Level Cleveland Center
Thu 08:17:13 AM 40.8433 -78.7767 279° West 430 495 34,000  Level Cleveland Center
Thu 08:18:15 AM 40.8547 -78.9525 275° West 428 493 34,000  Level Cleveland Center
Thu 08:19:17 AM 40.8656 -79.1067 275° West 426 490 34,000  Level Cleveland Center
Thu 08:20:19 AM 40.8758 -79.2589 275° West 423 487 34,000  Level Cleveland Center
Thu 08:21:21 AM 40.8867 -79.4125 275° West 422 486 34,000  Level Cleveland Center
Thu 08:22:23 AM 40.8983 -79.5967 275° West 421 484 34,000  Level Cleveland Center
Thu 08:23:24 AM 40.9083 -79.7500 275° West 421 484 34,000  Level Cleveland Center
Thu 08:24:26 AM 40.9181 -79.9036 275° West 422 486 34,000  Level Cleveland Center
Thu 08:25:28 AM 40.9286 -80.0583 275° West 423 487 34,000  Level Cleveland Center
Thu 08:26:30 AM 40.9378 -80.2133 275° West 425 489 34,000  Level Cleveland Center
Thu 08:27:32 AM 40.9494 -80.4017 275° West 432 497 34,000  Level Cleveland Center
Thu 08:28:34 AM 40.9592 -80.5608 275° West 433 498 34,000  Level Cleveland Center
Thu 08:29:36 AM 40.9681 -80.7211 274° West 437 503 34,000  Level Cleveland Center
Thu 08:30:38 AM 40.9772 -80.8808 274° West 437 503 34,000  Level Cleveland Center
Thu 08:31:40 AM 40.9867 -81.0525 274° West 439 505 34,000  Level Cleveland Center
Thu 08:32:42 AM 40.9947 -81.2142 274° West 437 503 34,000  Level Cleveland Center
Thu 08:33:44 AM 41.0025 -81.3739 274° West 435 501 34,000  Level Cleveland Center
Thu 08:34:45 AM 41.0100 -81.5322 274° West 429 494 34,000  Level Cleveland Center
Thu 08:35:47 AM 41.0186 -81.6883 274° West 423 487 34,000  Level Cleveland Center
Thu 08:36:49 AM 41.0250 -81.8428 273° West 417 480 34,000  Level Cleveland Center
Thu 08:37:51 AM 41.0331 -82.0225 273° West 414 476 34,000  Level Cleveland Center
Thu 08:38:53 AM 41.0403 -82.1750 274° West 413 475 34,000  Level Cleveland Center
Thu 08:39:55 AM 41.0464 -82.3281 273° West 413 475 34,000  Level Cleveland Center
Thu 08:40:57 AM 41.0531 -82.4822 273° West 413 475 34,000  Level Cleveland Center
Thu 08:41:59 AM 41.0586 -82.6361 273° West 414 476 34,000  Level Cleveland Center
Thu 08:43:01 AM 41.0653 -82.7928 273° West 417 480 34,000  Level Cleveland Center
Thu 08:44:02 AM 41.0703 -82.9483 272° West 420 483 34,000  Level Cleveland Center
Thu 08:45:04 AM 41.0775 -83.1056 274° West 422 486 34,000  Level Cleveland Center
Thu 08:46:06 AM 41.0825 -83.2600 273° West 422 486 34,000  Level Cleveland Center
Thu 08:47:08 AM 41.0872 -83.4128 272° West 419 482 34,000  Level Cleveland Center
Thu 08:48:10 AM 41.0928 -83.5778 273° West 417 480 34,000  Level Cleveland Center
Thu 08:49:12 AM 41.0969 -83.7308 272° West 417 480 34,000  Level Cleveland Center
Thu 08:50:13 AM 41.1031 -83.9072 273° West 414 476 34,000  Level Cleveland Center
Thu 08:50:54 AM 41.1056 -83.9978 272° West 410 472 34,000  Level Chicago Center
Thu 08:51:56 AM 41.1100 -84.1478 272° West 408 470 34,000  Level Chicago Center
Thu 08:52:58 AM 41.1133 -84.2992 272° West 411 473 34,000  Level Chicago Center
Thu 08:54:00 AM 41.1172 -84.4486 272° West 407 468 34,000  Level Chicago Center
Thu 08:55:02 AM 41.1214 -84.6281 272° West 406 467 34,000  Level Chicago Center
Thu 08:56:04 AM 41.1250 -84.7789 272° West 407 468 34,000  Level Chicago Center
Thu 08:57:06 AM 41.1278 -84.9297 271° West 410 472 34,000  Level Chicago Center
Thu 08:58:08 AM 41.1308 -85.0814 272° West 410 472 34,000  Level Chicago Center
Thu 08:59:10 AM 41.1331 -85.2325 271° West 410 472 34,000  Level Chicago Center
Thu 09:00:12 AM 41.1364 -85.3850 272° West 411 473 34,000  Level Chicago Center
Thu 09:01:13 AM 41.1392 -85.5536 271° West 413 475 34,000  Level Chicago Center
Thu 09:02:15 AM 41.1406 -85.7033 271° West 410 472 34,000  Level Chicago Center
Thu 09:03:17 AM 41.1419 -85.8533 271° West 409 471 34,000  Level Chicago Center
Thu 09:04:19 AM 41.1447 -86.0028 271° West 408 470 34,000  Level Chicago Center
Thu 09:05:21 AM 41.1458 -86.1822 271° West 408 470 34,000  Level Chicago Center
Thu 09:06:23 AM 41.1478 -86.3317 271° West 407 468 34,000  Level Chicago Center
Thu 09:07:25 AM 41.1492 -86.4856 271° West 405 466 34,000  Level Chicago Center
Thu 09:08:27 AM 41.1492 -86.6322 270° West 403 464 34,000  Level Chicago Center
Thu 09:09:29 AM 41.1503 -86.7778 271° West 399 459 34,000  Level Chicago Center
Thu 09:10:31 AM 41.1511 -86.9222 270° West 395 455 34,000  Level Chicago Center
Thu 09:11:33 AM 41.1508 -87.0903 270° West 384 442 34,000  Level Chicago Center
Thu 09:12:35 AM 41.1514 -87.2325 270° West 387 445 34,000  Level Chicago Center
Thu 09:13:37 AM 41.1514 -87.3714 270° West 381 438 34,000  Level Chicago Center
Thu 09:14:39 AM 41.1514 -87.5119 270° West 383 441 34,000  Level Chicago Center
Thu 09:15:41 AM 41.1503 -87.6531 269° West 384 442 34,000  Level Chicago Center
Thu 09:16:43 AM 41.1500 -87.7956 270° West 387 445 34,000  Level Chicago Center
Thu 09:17:45 AM 41.1497 -87.9689 270° West 390 449 34,000  Level Chicago Center
Thu 09:18:47 AM 41.1486 -88.1147 269° West 394 453 34,000  Level Chicago Center
Thu 09:19:49 AM 41.1464 -88.2622 269° West 397 457 34,000  Level Chicago Center
Thu 09:20:51 AM 41.1453 -88.4114 269° West 401 461 34,000  Level Chicago Center
Thu 09:21:53 AM 41.1433 -88.5606 269° West 405 466 34,000  Level Chicago Center
Thu 09:22:55 AM 41.1417 -88.7119 269° West 410 472 34,000  Level Chicago Center
Thu 09:23:57 AM 41.1403 -88.8950 269° West 415 478 34,000  Level Chicago Center
Thu 09:24:59 AM 41.1386 -89.0328 269° West 413 475 34,000  Level Chicago Center
Thu 09:26:01 AM 41.1353 -89.1969 269° West 413 475 34,000  Level Chicago Center
Thu 09:27:03 AM 41.1319 -89.3336 268° West 407 468 34,000  Level Chicago Center
Thu 09:28:05 AM 41.1292 -89.5128 269° West 407 468 34,000  Level Chicago Center
Thu 09:29:08 AM 41.1267 -89.6614 269° West 407 468 34,000  Level Chicago Center
Thu 09:30:10 AM 41.1236 -89.8092 268° West 405 466 34,000  Level Chicago Center
Thu 09:31:12 AM 41.1197 -89.9575 268° West 405 466 34,000  Level Chicago Center
Thu 09:32:14 AM 41.1167 -90.1061 268° West 406 467 34,000  Level Chicago Center
Thu 09:33:16 AM 41.1119 -90.2842 268° West 406 467 34,000  Level Chicago Center
Thu 09:34:18 AM 41.1072 -90.4342 268° West 409 471 34,000  Level Chicago Center
Thu 09:35:20 AM 41.1025 -90.5831 268° West 407 468 34,000  Level Chicago Center
Thu 09:36:22 AM 41.0983 -90.7311 268° West 404 465 34,000  Level Chicago Center
Thu 09:37:24 AM 41.0936 -90.8792 268° West 404 465 34,000  Level Chicago Center
Thu 09:38:26 AM 41.0886 -91.0564 268° West 402 463 34,000  Level Chicago Center
Thu 09:39:28 AM 41.0822 -91.2053 267° West 405 466 34,000  Level Chicago Center
Thu 09:40:30 AM 41.0778 -91.3536 268° West 405 466 34,000  Level Chicago Center
Thu 09:41:32 AM 41.0722 -91.5025 267° West 405 466 34,000  Level Chicago Center
Thu 09:42:34 AM 41.0653 -91.6661 267° West 407 468 34,000  Level Chicago Center
Thu 09:43:36 AM 41.0600 -91.8142 267° West 407 468 34,000  Level Chicago Center
Thu 09:44:38 AM 41.0539 -91.9631 267° West 408 470 34,000  Level Chicago Center
Thu 09:45:40 AM 41.0472 -92.1131 267° West 410 472 34,000  Level Chicago Center
Thu 09:46:42 AM 41.0392 -92.2925 267° West 411 473 34,000  Level Chicago Center
Thu 09:47:44 AM 41.0331 -92.4425 267° West 412 474 34,000  Level Chicago Center
Thu 09:48:46 AM 41.0261 -92.5922 267° West 413 475 34,000  Level Chicago Center
Thu 09:49:48 AM 41.0192 -92.7417 267° West 413 475 34,000  Level Chicago Center
Thu 09:50:50 AM 41.0119 -92.8908 266° West 413 475 34,000  Level Chicago Center
Thu 09:51:52 AM 41.0033 -93.0697 266° West 411 473 34,000  Level Chicago Center
Thu 09:52:54 AM 40.9953 -93.2175 266° West 409 471 34,000  Level Chicago Center
Thu 09:53:56 AM 40.9878 -93.3678 266° West 411 473 34,000  Level Chicago Center
Thu 09:54:58 AM 40.9794 -93.5156 266° West 409 471 34,000  Level Chicago Center
Thu 09:56:00 AM 40.9708 -93.6631 266° West 407 468 34,000  Level Chicago Center
Thu 09:57:02 AM 40.9611 -93.8408 266° West 408 470 34,000  Level Chicago Center
Thu 09:58:04 AM 40.9528 -93.9900 266° West 409 471 34,000  Level Chicago Center
Thu 09:59:06 AM 40.9436 -94.1394 265° West 411 473 34,000  Level Chicago Center
Thu 10:00:08 AM 40.9347 -94.2892 266° West 412 474 34,000  Level Chicago Center
Thu 10:01:10 AM 40.9258 -94.4428 266° West 418 481 34,000  Level Chicago Center
Thu 10:02:21 AM 40.9125 -94.6311 265° West 420 483 34,000  Level Minneapolis Center
Thu 10:03:23 AM 40.9044 -94.7861 266° West 420 483 34,000  Level Minneapolis Center
Thu 10:04:24 AM 40.9050 -94.9411 270° West 420 483 34,000  Level Minneapolis Center
Thu 10:05:26 AM 40.9064 -95.1264 271° West 421 484 34,000  Level Minneapolis Center
Thu 10:06:27 AM 40.9078 -95.2817 271° West 421 484 34,000  Level Minneapolis Center
Thu 10:07:29 AM 40.9078 -95.4358 270° West 420 483 34,000  Level Minneapolis Center
Thu 10:08:30 AM 40.9072 -95.5906 270° West 420 483 34,000  Level Minneapolis Center
Thu 10:09:32 AM 40.9069 -95.7458 270° West 420 483 34,000  Level Minneapolis Center
Thu 10:10:33 AM 40.9058 -95.9008 270° West 420 483 34,000  Level Minneapolis Center
Thu 10:11:34 AM 40.9050 -96.0567 270° West 420 483 34,000  Level Minneapolis Center
Thu 10:12:36 AM 40.9047 -96.2131 270° West 420 483 34,000  Level Minneapolis Center
Thu 10:13:37 AM 40.9033 -96.3694 269° West 421 484 34,000  Level Minneapolis Center
Thu 10:14:39 AM 40.9011 -96.5256 269° West 421 484 34,000  Level Minneapolis Center
Thu 10:15:40 AM 40.8994 -96.6817 269° West 421 484 34,000  Level Minneapolis Center
Thu 10:16:42 AM 40.8967 -96.8683 269° West 421 484 34,000  Level Minneapolis Center
Thu 10:17:43 AM 40.8961 -97.0242 270° West 421 484 34,000  Level Minneapolis Center
Thu 10:18:45 AM 40.8925 -97.1803 268° West 422 486 34,000  Level Minneapolis Center
Thu 10:19:46 AM 40.8906 -97.3353 269° West 422 486 34,000  Level Minneapolis Center
Thu 10:20:48 AM 40.8875 -97.4844 268° West 422 486 34,000  Level Minneapolis Center
Thu 10:21:49 AM 40.8847 -97.6406 269° West 423 487 34,000  Level Minneapolis Center
Thu 10:23:28 AM 40.8797 -97.8908 269° West 425 489 34,000  Level Denver Center
Thu 10:24:28 AM 40.8764 -98.0458 268° West 424 488 34,000  Level Denver Center
Thu 10:25:31 AM 40.8719 -98.2314 268° West 423 487 34,000  Level Denver Center
Thu 10:26:30 AM 40.8689 -98.3542 268° West 418 481 34,000  Level Denver Center
Thu 10:27:34 AM 40.8639 -98.5414 268° West 419 482 34,000  Level Denver Center
Thu 10:28:35 AM 40.8594 -98.6958 268° West 419 482 34,000  Level Denver Center
Thu 10:29:36 AM 40.8542 -98.8614 268° West 419 482 34,000  Level Denver Center
Thu 10:30:39 AM 40.8503 -99.0078 268° West 419 482 34,000  Level Denver Center
Thu 10:31:40 AM 40.8444 -99.1644 267° West 419 482 34,000  Level Denver Center
Thu 10:32:43 AM 40.8392 -99.3211 268° West 420 483 34,000  Level Denver Center
Thu 10:33:46 AM 40.8339 -99.4775 267° West 421 484 34,000  Level Denver Center
Thu 10:34:46 AM 40.8294 -99.6344 268° West 424 488 34,000  Level Denver Center
Thu 10:35:48 AM 40.8211 -99.8228 267° West 425 489 34,000  Level Denver Center
Thu 10:36:52 AM 40.8150 -99.9778 267° West 425 489 34,000  Level Denver Center
Thu 10:37:53 AM 40.8092 -100.1308 267° West 433 498 34,000  Level Denver Center
Thu 10:38:54 AM 40.8017 -100.3058 267° West 432 497 34,000 -528 Level Denver Center
Thu 10:39:58 AM 40.7775 -100.4550 258° West 432 497 32,900 -960 Descending Denver Center
Thu 10:40:59 AM 40.7511 -100.6322 259° West 433 498 32,000 -443 Descending Denver Center
Thu 10:42:00 AM 40.7278 -100.7892 259° West 439 505 32,000  Level Denver Center
Thu 10:43:04 AM 40.7028 -100.9447 258° West 445 512 32,000  Level Denver Center
Thu 10:44:04 AM 40.6753 -101.1231 259° West 445 512 32,000  Level Denver Center
Thu 10:45:07 AM 40.6506 -101.2756 258° West 445 512 32,000  Level Denver Center
Thu 10:46:11 AM 40.6222 -101.4500 258° West 441 507 32,000  Level Denver Center
Thu 10:47:13 AM 40.5972 -101.6011 258° West 441 507 32,000  Level Denver Center
Thu 10:48:14 AM 40.5678 -101.7769 258° West 441 507 32,000  Level Denver Center
Thu 10:49:15 AM 40.5428 -101.9264 258° West 441 507 32,000  Level Denver Center
Thu 10:50:18 AM 40.5139 -102.1014 258° West 440 506 32,000  Level Denver Center
Thu 10:51:22 AM 40.4878 -102.2514 257° West 440 506 32,000  Level Denver Center
Thu 10:52:23 AM 40.4617 -102.4033 257° West 441 507 32,000  Level Denver Center
Thu 10:53:24 AM 40.4308 -102.5817 257° West 445 512 32,000  Level Denver Center
Thu 10:54:25 AM 40.4019 -102.7519 257° West 445 512 32,000 -774 Level Denver Center
Thu 10:55:28 AM 40.3750 -102.9056 257° West 440 506 30,400 -1,680 Descending Denver Center
Thu 10:56:30 AM 40.3483 -103.0542 257° West 426 490 28,500 -1,790 Descending Denver Center
Thu 10:57:32 AM 40.3222 -103.1983 257° West 414 476 26,700 -1,762 Descending Denver Center
Thu 10:58:36 AM 40.2969 -103.3392 257° West 404 465 24,800 -1,984 Descending Denver Center
Thu 10:59:36 AM 40.2669 -103.5000 256° West 385 443 22,600 -1,935 Descending Denver Center
Thu 11:00:40 AM 40.2442 -103.6308 257° West 373 429 20,800 -1,728 Descending Denver Center
Thu 11:01:41 AM 40.2178 -103.7622 255° West 366 421 19,000 -1,279 Descending Denver Center
Thu 11:02:42 AM 40.1978 -103.8797 257° West 325 374 18,200 -1,016 Descending Denver Center
Thu 11:03:45 AM 40.1722 -103.9953 254° West 310 357 16,900 -1,790 Descending Denver Center
Thu 11:04:46 AM 40.1350 -104.0922 243° Southwest 301 346 14,500 -1,968 Descending Denver Center
Thu 11:05:50 AM 40.0597 -104.1267 199° South 269 310 12,800 -1,920 Descending Denver Center
Thu 11:06:51 AM 40.0125 -104.1978 229° Southwest 258 297 10,500 -1,355 Descending Denver Center
Thu 11:07:54 AM 39.9714 -104.2689 233° Southwest 248 285 10,000 -732 Descending Denver Center
Thu 11:08:54 AM 39.9389 -104.3500 242° Southwest 236 272 9,000 -957 Descending Denver Center
Thu 11:09:28 AM 39.9167 -104.3833 229° Southwest 230 265 8,500 -766 Descending Denver TRACON
Thu 11:10:28 AM 39.9000 -104.4500 252° West 188 216 7,800 -843 Descending Denver TRACON
Thu 11:11:29 AM 39.8833 -104.5167 252° West 174 200 6,800 -843 Descending Denver TRACON
Thu 11:12:29 AM 39.8833 -104.5667 270° West 149 171 6,100 -577 Descending Denver TRACON
Thu 11:14:05 AM 39.8775 -104.6442 264° West 141 162 5,300 -500 Descending Denver Center

Login

Don't have an account? Register now (free) for customized features, flight alerts, and more!